Time;durP1;ratioP1;P1;durP2;ratioP2;P2;SDS_P1;SDS_P2;PMS_P1;PMS_P2;Temp;Humidity;BMP_temperature;BMP_pressure;BME280_temperature;BME280_humidity;BME280_pressure;Samples;Min_cycle;Max_cycle;Signal;HPM_P1;HPM_P2
2023/10/06 00:02:30;;;;;;;24.20;6.90;;;;;;;13.35;58.63;101572.62;107636;1251;99166;-60
2023/10/06 00:05:00;;;;;;;25.60;6.80;;;;;;;13.40;58.47;101577.20;107561;1254;99177;-61
2023/10/06 00:07:29;;;;;;;29.00;7.50;;;;;;;13.42;58.29;101579.15;107615;1254;111819;-61
2023/10/06 00:09:59;;;;;;;31.20;7.10;;;;;;;13.44;58.14;101578.78;107608;1254;109791;-61
2023/10/06 00:12:31;;;;;;;20.90;7.10;;;;;;;13.47;57.96;101580.75;107585;1254;107476;-60
2023/10/06 00:14:59;;;;;;;15.00;7.70;;;;;;;13.48;58.00;101581.80;107585;1254;99278;-59
2023/10/06 00:17:33;;;;;;;14.60;6.90;;;;;;;13.46;57.97;101591.44;107586;1251;99154;-59
2023/10/06 00:20:05;;;;;;;17.20;7.00;;;;;;;13.45;57.92;101595.71;107587;1255;112501;-60
2023/10/06 00:22:37;;;;;;;20.90;6.40;;;;;;;13.42;58.03;101591.64;107663;1251;110430;-59
2023/10/06 00:25:11;;;;;;;18.50;6.60;;;;;;;13.39;58.20;101595.09;107633;1256;107860;-61
2023/10/06 00:27:40;;;;;;;12.80;6.10;;;;;;;13.36;57.97;101597.86;107574;1256;99294;-61
2023/10/06 00:30:11;;;;;;;28.30;8.20;;;;;;;13.34;57.95;101601.30;107617;1251;99256;-59
2023/10/06 00:32:42;;;;;;;23.40;6.40;;;;;;;13.31;58.02;101603.70;107607;1251;112359;-61
2023/10/06 00:35:15;;;;;;;20.10;7.60;;;;;;;13.30;57.81;101603.30;107491;1256;108704;-61
2023/10/06 00:37:44;;;;;;;25.10;6.80;;;;;;;13.27;57.76;101608.89;107606;1256;108390;-60
2023/10/06 00:40:24;;;;;;;18.70;6.70;;;;;;;13.26;57.66;101610.61;107536;1252;99226;-60
2023/10/06 00:42:59;;;;;;;16.40;6.70;;;;;;;13.25;57.93;101605.70;107575;1254;99067;-59
2023/10/06 00:45:30;;;;;;;17.50;6.30;;;;;;;13.22;57.99;101606.63;107553;1254;112539;-59
2023/10/06 00:47:59;;;;;;;14.30;6.40;;;;;;;13.21;58.19;101612.55;107554;1256;109855;-61
2023/10/06 00:50:32;;;;;;;19.70;6.20;;;;;;;13.17;58.21;101614.14;107597;1251;107169;-60
2023/10/06 00:53:04;;;;;;;23.00;6.20;;;;;;;13.11;58.53;101613.18;107512;1254;99214;-59
2023/10/06 00:55:33;;;;;;;24.60;6.50;;;;;;;13.04;58.54;101623.31;107647;1253;99753;-60
2023/10/06 00:58:03;;;;;;;29.00;7.10;;;;;;;12.99;58.63;101628.99;107608;1257;112936;-59
2023/10/06 01:00:37;;;;;;;24.00;7.30;;;;;;;12.94;58.98;101632.66;107543;1253;109987;-60
2023/10/06 01:03:14;;;;;;;21.10;7.70;;;;;;;12.88;59.41;101634.95;107586;1252;107804;-61
2023/10/06 01:05:46;;;;;;;20.00;6.80;;;;;;;12.79;59.42;101636.04;107525;1253;99253;-60
2023/10/06 01:08:15;;;;;;;15.60;6.00;;;;;;;12.71;59.88;101638.67;107581;1253;99121;-60
2023/10/06 01:10:43;;;;;;;21.00;6.20;;;;;;;12.64;60.01;101641.04;107552;1257;112543;-60
2023/10/06 01:13:13;;;;;;;25.80;5.80;;;;;;;12.59;60.18;101643.27;107556;1254;108849;-61
2023/10/06 01:15:56;;;;;;;17.00;6.00;;;;;;;12.59;60.20;101650.70;107548;1253;107761;-61
2023/10/06 01:18:26;;;;;;;21.70;5.70;;;;;;;12.57;60.22;101652.24;107530;1256;99088;-60
2023/10/06 01:20:55;;;;;;;20.60;5.50;;;;;;;12.55;60.46;101652.85;107601;1253;99774;-60
2023/10/06 01:23:27;;;;;;;22.50;6.20;;;;;;;12.53;60.43;101655.98;107633;1256;113244;-60
2023/10/06 01:25:59;;;;;;;26.50;5.90;;;;;;;12.57;60.30;101653.38;107603;1256;109318;-59
2023/10/06 01:28:28;;;;;;;30.30;6.90;;;;;;;12.64;59.97;101660.52;107633;1254;108182;-61
2023/10/06 01:30:57;;;;;;;27.00;6.50;;;;;;;12.73;59.87;101666.63;107549;1253;99190;-61
2023/10/06 01:33:26;;;;;;;23.50;6.30;;;;;;;12.82;59.73;101675.55;107446;1254;99103;-60
2023/10/06 01:35:55;;;;;;;22.40;6.10;;;;;;;12.90;59.43;101678.73;107572;1252;111928;-61
2023/10/06 01:38:23;;;;;;;34.10;6.60;;;;;;;12.93;59.44;101666.93;107595;1254;109902;-60
2023/10/06 01:40:53;;;;;;;22.50;6.20;;;;;;;12.96;59.28;101664.09;107574;1252;108239;-59
2023/10/06 01:43:22;;;;;;;23.90;6.40;;;;;;;12.98;59.22;101667.38;107561;1254;99192;-60
2023/10/06 01:45:52;;;;;;;20.10;6.60;;;;;;;12.99;59.22;101676.10;107575;1253;99707;-59
2023/10/06 01:50:50;;;;;;;27.30;6.90;;;;;;;12.99;59.04;101673.05;107636;1254;109688;-60
2023/10/06 01:53:21;;;;;;;18.80;7.00;;;;;;;12.98;59.03;101677.98;107633;1253;106627;-59
2023/10/06 01:55:51;;;;;;;27.50;7.30;;;;;;;12.96;59.09;101677.80;107630;1254;99182;-60
2023/10/06 01:58:20;;;;;;;15.80;6.80;;;;;;;12.95;59.16;101681.34;107567;1254;99517;-60
2023/10/06 02:00:49;;;;;;;27.80;6.70;;;;;;;12.94;59.06;101681.23;107561;1254;113208;-59
2023/10/06 02:03:21;;;;;;;25.00;7.00;;;;;;;12.94;58.89;101680.73;107585;1254;109205;-59
2023/10/06 02:05:59;;;;;;;25.30;7.20;;;;;;;12.94;58.75;101678.17;107593;1253;107795;-59
2023/10/06 02:08:30;;;;;;;19.10;6.50;;;;;;;12.93;58.82;101687.27;107606;1253;99067;-59
2023/10/06 02:11:01;;;;;;;19.90;6.10;;;;;;;12.90;58.72;101697.56;107633;1254;99072;-60
2023/10/06 02:13:30;;;;;;;16.20;5.90;;;;;;;12.84;58.55;101699.73;107620;1251;113398;-60
2023/10/06 02:16:03;;;;;;;13.50;5.50;;;;;;;12.76;58.65;101712.77;107590;1256;109317;-60
2023/10/06 02:18:37;;;;;;;13.50;6.00;;;;;;;12.68;58.81;101723.39;107596;1251;108931;-60
2023/10/06 02:21:23;;;;;;;24.70;6.70;;;;;;;12.59;59.12;101726.27;107617;1254;99205;-61
2023/10/06 02:23:51;;;;;;;21.90;7.40;;;;;;;12.51;59.11;101724.03;107524;1254;99822;-61
2023/10/06 02:26:20;;;;;;;33.80;7.10;;;;;;;12.46;59.12;101719.77;107536;1253;113384;-59
2023/10/06 02:28:48;;;;;;;23.00;6.60;;;;;;;12.42;59.45;101723.66;107556;1254;108895;-60
2023/10/06 02:31:21;;;;;;;20.60;7.40;;;;;;;12.36;59.58;101723.78;107509;1253;107622;-60
2023/10/06 02:33:51;;;;;;;22.20;6.60;;;;;;;12.32;59.75;101723.73;107585;1251;99073;-61
2023/10/06 02:36:22;;;;;;;13.70;6.20;;;;;;;12.30;59.89;101731.10;107628;1256;99710;-60
2023/10/06 02:38:51;;;;;;;20.00;7.20;;;;;;;12.27;59.70;101737.64;107640;1251;112827;-60
2023/10/06 02:41:25;;;;;;;19.80;6.10;;;;;;;12.24;59.95;101735.86;107640;1251;109310;-59
2023/10/06 02:44:05;;;;;;;25.80;6.90;;;;;;;12.21;59.99;101736.67;107565;1256;107643;-59
2023/10/06 02:46:36;;;;;;;15.10;6.80;;;;;;;12.18;60.18;101731.29;107588;1251;99178;-60
2023/10/06 02:49:09;;;;;;;17.80;6.00;;;;;;;12.16;60.16;101730.40;107555;1251;99733;-59
2023/10/06 02:51:49;;;;;;;20.10;7.60;;;;;;;12.14;60.20;101728.57;107608;1251;112571;-61
2023/10/06 02:56:46;;;;;;;24.20;7.00;;;;;;;12.14;60.31;101731.86;107602;1254;107248;-60
2023/10/06 02:59:21;;;;;;;18.10;6.70;;;;;;;12.14;60.54;101728.95;107654;1253;99195;-60
2023/10/06 03:01:57;;;;;;;21.10;7.90;;;;;;;12.13;60.81;101729.91;107616;1254;100473;-60
2023/10/06 03:04:27;;;;;;;26.30;7.40;;;;;;;12.14;60.83;101734.73;107648;1251;111901;-61
2023/10/06 03:06:59;;;;;;;20.40;6.50;;;;;;;12.12;61.09;101733.80;107608;1253;108785;-61
2023/10/06 03:09:47;;;;;;;21.30;6.50;;;;;;;12.10;61.02;101732.90;107561;1254;107967;-60
2023/10/06 03:12:26;;;;;;;21.40;7.90;;;;;;;12.08;61.18;101735.17;107587;1253;99287;-61
2023/10/06 03:14:56;;;;;;;30.00;9.10;;;;;;;12.06;61.27;101736.04;107640;1253;99726;-60
2023/10/06 03:17:25;;;;;;;29.70;9.30;;;;;;;12.05;61.34;101735.74;107610;1251;113325;-61
2023/10/06 03:20:10;;;;;;;23.50;7.30;;;;;;;12.04;61.36;101735.65;107643;1251;109250;-60
2023/10/06 03:22:40;;;;;;;23.90;7.60;;;;;;;12.02;61.39;101737.44;107598;1251;107953;-59
2023/10/06 03:25:16;;;;;;;36.00;8.20;;;;;;;11.99;61.35;101738.73;107428;1254;99190;-60
2023/10/06 03:27:45;;;;;;;16.90;6.80;;;;;;;11.95;61.38;101740.37;107592;1251;99080;-60
2023/10/06 03:31:02;;;;;;;26.60;7.60;;;;;;;11.87;61.70;101742.73;107595;1251;112790;-60
2023/10/06 03:33:13;;;;;;;29.30;6.80;;;;;;;11.81;61.51;101740.15;107613;1251;109273;-59
2023/10/06 03:35:48;;;;;;;35.40;8.70;;;;;;;11.78;61.71;101739.34;107608;1251;107911;-60
2023/10/06 03:46:11;;;;;;;23.00;7.40;;;;;;;11.69;62.15;101742.86;107560;1254;108534;-59
2023/10/06 03:48:40;;;;;;;19.90;7.20;;;;;;;11.68;62.35;101750.52;107590;1252;106905;-61
2023/10/06 03:51:09;;;;;;;22.60;7.30;;;;;;;11.65;62.27;101749.45;107553;1254;99269;-59
2023/10/06 03:53:37;;;;;;;19.20;7.50;;;;;;;11.64;62.44;101747.58;107561;1254;99803;-60
2023/10/06 03:56:06;;;;;;;25.20;6.70;;;;;;;11.61;62.51;101746.52;107568;1254;112358;-59
2023/10/06 03:58:34;;;;;;;30.30;6.90;;;;;;;11.58;62.72;101752.53;107580;1251;108973;-60
2023/10/06 04:01:09;;;;;;;25.40;7.00;;;;;;;11.56;62.82;101753.23;107637;1254;106846;-59
2023/10/06 04:03:38;;;;;;;;;;;;;;;11.52;62.75;101759.25;107548;1254;99181;-60
2023/10/06 04:06:12;;;;;;;30.10;7.10;;;;;;;11.49;63.12;101760.77;107605;1253;99243;-59
2023/10/06 04:08:45;;;;;;;33.30;7.60;;;;;;;11.45;63.11;101759.64;107597;1251;113493;-60
2023/10/06 04:11:16;;;;;;;30.00;9.30;;;;;;;11.41;63.46;101763.20;107561;1256;108373;-60
2023/10/06 04:13:45;;;;;;;27.40;7.10;;;;;;;11.38;63.46;101766.43;107508;1254;108690;-61
2023/10/06 04:16:14;;;;;;;23.70;6.80;;;;;;;11.38;63.36;101767.54;107651;1251;99717;-61
2023/10/06 04:18:47;;;;;;;32.60;11.50;;;;;;;11.39;63.62;101768.02;107586;1256;99208;-61
2023/10/06 04:21:17;;;;;;;35.60;10.50;;;;;;;11.40;63.54;101779.59;107571;1254;112624;-61
2023/10/06 04:23:45;;;;;;;25.00;8.60;;;;;;;11.43;63.61;101781.15;107584;1253;109323;-60
2023/10/06 04:26:16;;;;;;;34.10;13.90;;;;;;;11.47;63.57;101784.27;107561;1255;109058;-61
2023/10/06 04:28:46;;;;;;;30.30;9.90;;;;;;;11.50;63.47;101780.46;107543;1254;99223;-60
2023/10/06 04:31:15;;;;;;;51.00;12.10;;;;;;;11.50;63.46;101782.95;107578;1251;99819;-61
2023/10/06 04:33:44;;;;;;;28.20;11.80;;;;;;;11.52;63.43;101789.48;107559;1254;112134;-60
2023/10/06 04:36:20;;;;;;;42.80;12.30;;;;;;;11.52;63.36;101795.55;107621;1254;110368;-61
2023/10/06 04:38:50;;;;;;;29.90;12.40;;;;;;;11.55;63.82;101805.05;107603;1251;108131;-60
2023/10/06 04:41:20;;;;;;;46.00;11.20;;;;;;;11.51;64.48;101808.23;107568;1251;99170;-59
2023/10/06 04:43:51;;;;;;;32.90;11.30;;;;;;;11.46;64.73;101809.86;107575;1251;99191;-60
2023/10/06 04:46:20;;;;;;;39.10;12.80;;;;;;;11.43;64.86;101811.46;107609;1255;112818;-61
2023/10/06 04:48:50;;;;;;;43.30;13.20;;;;;;;11.41;64.47;101815.55;107579;1253;110677;-60
2023/10/06 04:51:19;;;;;;;35.20;13.90;;;;;;;11.45;64.44;101823.58;107582;1253;108459;-59
2023/10/06 04:53:47;;;;;;;40.90;13.30;;;;;;;11.51;64.31;101823.66;107601;1251;99215;-59
2023/10/06 04:56:16;;;;;;;34.50;11.30;;;;;;;11.57;64.47;101829.33;107603;1254;100272;-59
2023/10/06 04:58:45;;;;;;;34.60;10.40;;;;;;;11.60;64.29;101826.36;107585;1251;113615;-60
2023/10/06 05:01:16;;;;;;;28.30;10.10;;;;;;;11.64;64.22;101822.33;107534;1251;108906;-60
2023/10/06 05:03:45;;;;;;;36.60;11.10;;;;;;;11.66;64.10;101822.20;107611;1253;107468;-60
2023/10/06 05:06:16;;;;;;;34.40;11.20;;;;;;;11.68;64.09;101826.34;107592;1254;99208;-60
2023/10/06 05:08:49;;;;;;;33.40;9.60;;;;;;;11.70;63.92;101823.10;107671;1251;99317;-59
2023/10/06 05:11:20;;;;;;;28.70;10.10;;;;;;;11.70;64.04;101824.89;107583;1251;111357;-60
2023/10/06 05:13:52;;;;;;;35.90;10.10;;;;;;;11.72;64.31;101835.15;107646;1251;109824;-60
2023/10/06 05:16:22;;;;;;;39.20;9.30;;;;;;;11.73;64.58;101838.13;107628;1251;108705;-60
2023/10/06 05:18:53;;;;;;;29.90;10.10;;;;;;;11.75;64.61;101836.73;107537;1253;99282;-59
2023/10/06 05:21:21;;;;;;;43.50;12.50;;;;;;;11.78;64.62;101839.60;107660;1251;99733;-60
2023/10/06 05:23:49;;;;;;;37.40;11.50;;;;;;;11.81;64.46;101843.15;107588;1254;112240;-60
2023/10/06 05:26:20;;;;;;;37.60;12.90;;;;;;;11.84;64.22;101845.77;107585;1253;109715;-61
2023/10/06 05:28:50;;;;;;;31.90;11.40;;;;;;;11.89;64.03;101853.67;107533;1255;107492;-61
2023/10/06 05:31:19;;;;;;;46.30;12.20;;;;;;;11.94;63.79;101854.01;107535;1252;99338;-62
2023/10/06 05:33:48;;;;;;;46.40;12.70;;;;;;;12.02;63.73;101855.55;107602;1253;99064;-62
2023/10/06 05:36:17;;;;;;;38.50;11.50;;;;;;;12.11;63.60;101858.31;107613;1253;113109;-62
2023/10/06 05:38:49;;;;;;;38.70;12.80;;;;;;;12.23;63.46;101857.59;107621;1253;108889;-61
2023/10/06 05:41:18;;;;;;;44.90;12.00;;;;;;;12.34;63.17;101867.52;107597;1253;107074;-62
2023/10/06 05:43:46;;;;;;;41.40;12.00;;;;;;;12.44;62.97;101864.15;107532;1253;99199;-61
2023/10/06 05:46:16;;;;;;;36.80;11.70;;;;;;;12.55;62.82;101871.40;107579;1253;99856;-60
2023/10/06 05:48:45;;;;;;;41.60;11.90;;;;;;;12.69;62.57;101873.56;107567;1253;113238;-61
2023/10/06 05:51:19;;;;;;;34.00;12.10;;;;;;;12.79;61.81;101876.38;107582;1251;108911;-62
2023/10/06 05:53:48;;;;;;;42.90;12.90;;;;;;;12.88;61.60;101877.24;107599;1251;108648;-60
2023/10/06 05:56:19;;;;;;;33.30;11.40;;;;;;;12.99;61.66;101879.60;107587;1255;99166;-60
2023/10/06 05:58:48;;;;;;;35.40;12.40;;;;;;;13.12;60.86;101888.29;107579;1253;99704;-60
2023/10/06 06:01:21;;;;;;;38.30;12.30;;;;;;;13.20;60.57;101885.83;107565;1254;113427;-60
2023/10/06 06:03:51;;;;;;;40.00;12.30;;;;;;;13.29;60.49;101891.38;107619;1251;109737;-61
2023/10/06 06:06:24;;;;;;;36.40;10.90;;;;;;;13.36;59.88;101894.61;107608;1253;108110;-60
2023/10/06 06:08:53;;;;;;;21.40;10.70;;;;;;;13.40;59.55;101893.41;107591;1252;99183;-61
2023/10/06 06:11:21;;;;;;;32.20;10.70;;;;;;;13.46;59.42;101897.23;107618;1251;99080;-59
2023/10/06 06:13:49;;;;;;;27.70;10.60;;;;;;;13.51;59.32;101897.59;107615;1251;112685;-58
2023/10/06 06:16:34;;;;;;;23.60;10.60;;;;;;;13.54;58.99;101899.98;107583;1254;108535;-60
2023/10/06 06:19:05;;;;;;;39.50;11.80;;;;;;;13.60;59.00;101899.50;107603;1251;107704;-60
2023/10/06 06:21:34;;;;;;;27.20;9.80;;;;;;;13.70;58.97;101904.11;107602;1251;99224;-62
2023/10/06 06:24:06;;;;;;;21.40;10.80;;;;;;;13.75;58.87;101905.81;107612;1251;99724;-60
2023/10/06 06:26:38;;;;;;;24.10;9.10;;;;;;;13.79;58.69;101908.18;107627;1251;112869;-61
2023/10/06 06:29:08;;;;;;;30.40;10.80;;;;;;;13.86;58.62;101908.35;107613;1254;108762;-61
2023/10/06 06:31:37;;;;;;;28.10;10.30;;;;;;;13.94;58.52;101906.27;107626;1251;107621;-60
2023/10/06 06:34:06;;;;;;;33.40;9.60;;;;;;;13.97;58.44;101903.07;107565;1251;99179;-61
2023/10/06 06:36:35;;;;;;;23.00;9.40;;;;;;;14.00;58.21;101902.27;107606;1251;99150;-60
2023/10/06 06:39:04;;;;;;;24.20;9.70;;;;;;;14.03;58.07;101904.72;107606;1251;112285;-61
2023/10/06 06:41:33;;;;;;;24.80;8.60;;;;;;;14.04;57.99;101904.98;107605;1251;109903;-61
2023/10/06 06:44:03;;;;;;;26.80;9.80;;;;;;;14.05;57.91;101902.38;107504;1251;106102;-60
2023/10/06 06:46:31;;;;;;;24.20;10.60;;;;;;;14.11;58.00;101903.87;107624;1255;99348;-61
2023/10/06 06:49:00;;;;;;;29.10;9.10;;;;;;;14.20;57.98;101904.60;107602;1251;99182;-60
2023/10/06 06:51:30;;;;;;;23.90;8.20;;;;;;;14.29;57.72;101902.70;107625;1251;112081;-62
2023/10/06 06:53:59;;;;;;;22.70;8.50;;;;;;;14.41;57.59;101905.67;107625;1251;109073;-60
2023/10/06 06:56:28;;;;;;;23.40;9.00;;;;;;;14.52;57.35;101905.98;107614;1254;108238;-60
2023/10/06 06:59:01;;;;;;;25.80;9.20;;;;;;;14.61;57.33;101903.75;107563;1251;99457;-61
2023/10/06 07:01:33;;;;;;;25.50;8.10;;;;;;;14.72;57.18;101900.62;107577;1251;99792;-61
2023/10/06 07:04:02;;;;;;;23.40;7.80;;;;;;;14.86;57.03;101896.52;107584;1254;112676;-60
2023/10/06 07:06:32;;;;;;;17.80;6.90;;;;;;;14.96;56.57;101898.49;107440;1254;109444;-61
2023/10/06 07:09:01;;;;;;;18.50;7.60;;;;;;;15.09;56.01;101894.65;107578;1253;108587;-59
2023/10/06 07:11:29;;;;;;;18.60;6.90;;;;;;;15.23;55.50;101891.73;107576;1254;99161;-59
2023/10/06 07:13:57;;;;;;;20.80;6.70;;;;;;;15.38;55.34;101896.92;107586;1255;99057;-59
2023/10/06 07:16:26;;;;;;;23.20;7.40;;;;;;;15.51;55.49;101894.86;107619;1251;113691;-59
2023/10/06 07:18:55;;;;;;;22.70;7.30;;;;;;;15.66;55.10;101892.39;107614;1251;109810;-61
2023/10/06 07:21:23;;;;;;;20.90;7.80;;;;;;;15.81;54.01;101891.96;107565;1251;107405;-61
2023/10/06 07:23:54;;;;;;;25.10;6.40;;;;;;;15.96;53.61;101888.73;107552;1254;99265;-61
2023/10/06 07:26:23;;;;;;;21.90;6.90;;;;;;;16.08;53.13;101888.31;107558;1254;99231;-61
2023/10/06 07:28:56;;;;;;;29.30;6.70;;;;;;;16.18;52.83;101887.95;107557;1256;112520;-61
2023/10/06 07:31:26;;;;;;;18.60;6.50;;;;;;;16.29;52.45;101883.67;107593;1253;108669;-60
2023/10/06 07:33:57;;;;;;;20.60;6.60;;;;;;;16.40;52.14;101883.30;107570;1252;107663;-61
2023/10/06 07:36:27;;;;;;;18.70;6.00;;;;;;;16.51;52.01;101889.48;107546;1254;99250;-60
2023/10/06 07:38:57;;;;;;;15.50;6.50;;;;;;;16.65;51.35;101893.98;107595;1253;99081;-60
2023/10/06 07:41:26;;;;;;;20.70;5.50;;;;;;;16.77;50.98;101890.42;107626;1254;111955;-61
2023/10/06 07:43:56;;;;;;;20.60;6.10;;;;;;;16.89;50.22;101893.81;107571;1254;109513;-60
2023/10/06 07:46:26;;;;;;;18.00;6.30;;;;;;;16.96;50.55;101894.45;107585;1254;107688;-60
2023/10/06 07:48:56;;;;;;;16.70;6.20;;;;;;;17.07;50.32;101898.64;107604;1255;99310;-60
2023/10/06 07:51:26;;;;;;;23.80;7.20;;;;;;;17.17;50.47;101895.46;107629;1251;99201;-59
2023/10/06 07:53:55;;;;;;;12.00;5.30;;;;;;;17.29;50.25;101901.00;107591;1253;111505;-60
2023/10/06 07:56:28;;;;;;;11.70;5.30;;;;;;;17.43;49.27;101898.59;107542;1254;109860;-61
2023/10/06 07:58:58;;;;;;;13.90;5.30;;;;;;;17.52;49.05;101902.73;107599;1254;107621;-60
2023/10/06 08:01:27;;;;;;;15.30;5.40;;;;;;;17.61;48.42;101903.29;107565;1252;99038;-60
2023/10/06 08:03:55;;;;;;;15.90;4.90;;;;;;;17.69;48.41;101906.88;107516;1253;99181;-61
2023/10/06 08:06:24;;;;;;;24.70;5.60;;;;;;;17.78;47.93;101904.68;107659;1254;112606;-61
2023/10/06 08:08:53;;;;;;;11.80;5.00;;;;;;;17.86;48.07;101905.80;107604;1254;109713;-62
2023/10/06 08:11:21;;;;;;;17.20;6.20;;;;;;;17.97;47.88;101910.56;107568;1254;107510;-61
2023/10/06 08:13:50;;;;;;;18.50;5.30;;;;;;;18.08;47.86;101906.70;107573;1253;99259;-62
2023/10/06 08:16:19;;;;;;;12.60;5.20;;;;;;;18.21;48.15;101908.98;107479;1253;99108;-62
2023/10/06 08:18:48;;;;;;;12.50;5.20;;;;;;;18.37;47.39;101906.44;107525;1253;113216;-60
2023/10/06 08:21:16;;;;;;;13.00;4.70;;;;;;;18.52;47.48;101900.91;107570;1254;109688;-60
2023/10/06 08:23:46;;;;;;;22.00;6.20;;;;;;;18.70;46.77;101907.23;107551;1254;108034;-60
2023/10/06 08:26:14;;;;;;;17.00;5.70;;;;;;;18.83;45.75;101909.31;107585;1253;99161;-60
2023/10/06 08:28:43;;;;;;;21.60;5.70;;;;;;;18.99;45.13;101901.09;107489;1254;100958;-61
2023/10/06 08:31:16;;;;;;;17.10;5.40;;;;;;;19.18;45.11;101906.92;107584;1254;112737;-60
2023/10/06 08:33:45;;;;;;;18.40;5.60;;;;;;;19.38;45.59;101904.90;107596;1254;109403;-61
2023/10/06 08:36:14;;;;;;;18.60;4.90;;;;;;;19.54;44.49;101906.05;107505;1251;108766;-62
2023/10/06 08:38:46;;;;;;;10.50;4.90;;;;;;;19.63;43.32;101911.47;107589;1254;98813;-60
2023/10/06 08:41:18;;;;;;;19.30;5.20;;;;;;;19.69;43.33;101904.47;107609;1254;99759;-60
2023/10/06 08:43:50;;;;;;;20.40;4.70;;;;;;;19.93;43.01;101907.94;107560;1255;113075;-61
2023/10/06 08:46:19;;;;;;;55.90;5.20;;;;;;;20.12;42.24;101916.84;107556;1251;109705;-60
2023/10/06 08:48:50;;;;;;;12.50;3.70;;;;;;;20.24;41.80;101918.44;107565;1251;106819;-60
2023/10/06 08:51:22;;;;;;;18.30;4.20;;;;;;;20.45;41.48;101914.81;107604;1254;99192;-60
2023/10/06 08:53:51;;;;;;;10.20;3.60;;;;;;;20.61;40.95;101914.47;107596;1253;99739;-61
2023/10/06 08:56:19;;;;;;;14.10;4.40;;;;;;;20.89;41.21;101914.02;107604;1252;112598;-61
2023/10/06 08:58:48;;;;;;;13.90;4.40;;;;;;;21.31;40.60;101911.86;107542;1253;110116;-61
2023/10/06 09:01:18;;;;;;;8.90;4.00;;;;;;;21.44;39.50;101911.73;107577;1253;108854;-61
2023/10/06 09:03:49;;;;;;;14.30;4.30;;;;;;;21.56;39.21;101914.20;107485;1252;99173;-60
2023/10/06 09:06:18;;;;;;;15.50;5.40;;;;;;;21.90;38.85;101916.02;107584;1251;99818;-62
2023/10/06 09:08:49;;;;;;;16.60;4.30;;;;;;;22.48;38.16;101907.79;107560;1253;113714;-61
2023/10/06 09:11:37;;;;;;;12.30;5.20;;;;;;;22.67;37.11;101908.16;107555;1255;110129;-62
2023/10/06 09:14:10;;;;;;;19.20;4.40;;;;;;;22.25;37.24;101917.55;107546;1253;108531;-61
2023/10/06 09:16:49;;;;;;;15.10;4.50;;;;;;;22.12;38.33;101918.71;107586;1254;99253;-62
2023/10/06 09:19:18;;;;;;;18.10;3.90;;;;;;;22.78;37.80;101919.33;107629;1251;99262;-61
2023/10/06 09:22:21;;;;;;;8.70;3.70;;;;;;;23.66;37.30;101911.54;107564;1252;113113;-61
2023/10/06 09:25:02;;;;;;;12.90;3.50;;;;;;;24.53;34.23;101913.41;107319;1253;109686;-61
2023/10/06 09:27:32;;;;;;;23.30;4.00;;;;;;;24.51;33.46;101908.80;107534;1254;108047;-60
2023/10/06 09:30:07;;;;;;;9.80;3.20;;;;;;;25.21;33.91;101908.15;107514;1254;99303;-61
2023/10/06 09:32:36;;;;;;;10.30;3.30;;;;;;;25.17;33.19;101916.45;107495;1253;99848;-60
2023/10/06 09:35:19;;;;;;;13.00;3.30;;;;;;;25.01;33.39;101915.23;107562;1253;112825;-60
2023/10/06 09:37:47;;;;;;;7.50;2.70;;;;;;;24.82;33.32;101923.10;107557;1252;109085;-60
2023/10/06 09:40:22;;;;;;;9.20;3.10;;;;;;;24.55;33.13;101921.95;107617;1253;108429;-61
2023/10/06 09:42:51;;;;;;;13.00;3.30;;;;;;;24.22;33.00;101923.05;107510;1253;99178;-61
2023/10/06 09:45:24;;;;;;;11.10;4.30;;;;;;;23.57;33.41;101929.94;107505;1253;99141;-59
2023/10/06 09:47:56;;;;;;;12.00;3.50;;;;;;;23.53;33.72;101927.75;107613;1253;112174;-61
2023/10/06 09:50:26;;;;;;;11.60;3.20;;;;;;;24.07;32.85;101925.42;107626;1254;108888;-61
2023/10/06 09:53:00;;;;;;;12.50;2.90;;;;;;;24.60;31.91;101918.95;107561;1255;108749;-61
2023/10/06 09:55:30;;;;;;;15.80;2.70;;;;;;;25.06;31.11;101913.69;107523;1253;99169;-61
2023/10/06 09:58:00;;;;;;;9.60;2.60;;;;;;;25.46;30.31;101914.11;107568;1254;99074;-60
2023/10/06 10:00:30;;;;;;;25.10;3.20;;;;;;;25.88;29.99;101908.95;107552;1254;113493;-60
2023/10/06 10:03:00;;;;;;;13.80;2.90;;;;;;;25.75;30.55;101907.43;107566;1254;108893;-61
2023/10/06 10:05:29;;;;;;;13.30;2.70;;;;;;;25.73;29.88;101914.70;107533;1254;108198;-59
2023/10/06 10:07:58;;;;;;;8.00;2.30;;;;;;;26.29;29.38;101913.46;107268;1254;422611;-59
2023/10/06 10:10:49;;;;;;;5.80;2.90;;;;;;;26.40;28.21;101913.63;107580;1256;99294;-60
2023/10/06 10:13:20;;;;;;;19.80;2.80;;;;;;;26.50;28.34;101903.34;107557;1253;113503;-59
2023/10/06 10:15:50;;;;;;;8.50;2.90;;;;;;;27.35;28.71;101902.66;107581;1256;109701;-61
2023/10/06 10:18:35;;;;;;;14.40;3.30;;;;;;;28.48;26.63;101894.73;107544;1254;108732;-60
2023/10/06 10:21:09;;;;;;;4.70;2.20;;;;;;;28.36;26.46;101899.77;107489;1253;99144;-59
2023/10/06 10:23:41;;;;;;;6.70;2.30;;;;;;;28.07;26.51;101893.42;107568;1256;99061;-61
2023/10/06 10:26:20;;;;;;;8.90;2.60;;;;;;;27.83;26.07;101887.90;107566;1253;112889;-60
2023/10/06 10:29:12;;;;;;;8.20;2.00;;;;;;;27.27;25.77;101895.40;107536;1253;109965;-60
2023/10/06 10:31:46;;;;;;;13.50;2.70;;;;;;;26.54;27.02;101888.34;107471;1253;107998;-59
2023/10/06 10:34:38;;;;;;;12.00;2.00;;;;;;;25.80;27.51;101884.95;107579;1254;99184;-61
2023/10/06 10:37:06;;;;;;;5.80;2.10;;;;;;;25.64;27.85;101885.05;107584;1251;99074;-60
2023/10/06 10:39:48;;;;;;;15.90;2.90;;;;;;;25.20;28.03;101881.58;107613;1255;114319;-60
2023/10/06 10:42:21;;;;;;;11.50;2.70;;;;;;;24.96;28.64;101879.52;107528;1252;109739;-61
2023/10/06 10:45:09;;;;;;;;;;;;;;;24.68;28.81;101879.70;107565;1254;108566;-60
2023/10/06 10:47:38;;;;;;;7.20;2.30;;;;;;;24.47;29.11;101881.86;107509;1255;99259;-60
2023/10/06 10:50:07;;;;;;;13.20;2.40;;;;;;;24.88;28.91;101877.87;107572;1253;99134;-61
2023/10/06 10:52:36;;;;;;;14.80;2.50;;;;;;;25.18;27.90;101873.57;107611;1251;113576;-60
2023/10/06 10:55:06;;;;;;;8.00;2.10;;;;;;;25.63;27.84;101872.72;107540;1254;109254;-59
2023/10/06 10:57:35;;;;;;;21.30;2.20;;;;;;;25.45;27.85;101869.55;107598;1255;108263;-60
2023/10/06 11:02:41;;;;;;;14.50;1.60;;;;;;;26.13;27.09;101867.69;107579;1252;99184;-59
2023/10/06 11:05:11;;;;;;;14.20;2.20;;;;;;;26.86;26.15;101865.07;107607;1253;113530;-60
2023/10/06 11:07:41;;;;;;;6.80;1.80;;;;;;;27.65;25.36;101868.89;107535;1254;109282;-59
2023/10/06 11:10:13;;;;;;;7.70;1.70;;;;;;;28.41;25.06;101861.13;107522;1253;108466;-59
2023/10/06 11:12:42;;;;;;;5.80;1.70;;;;;;;29.09;23.89;101858.23;107574;1253;99381;-60
2023/10/06 11:15:16;;;;;;;8.80;1.70;;;;;;;28.78;23.64;101862.89;107559;1254;97708;-60
2023/10/06 11:17:45;;;;;;;17.30;1.90;;;;;;;27.83;24.16;101872.17;107580;1251;113339;-60
2023/10/06 11:20:15;;;;;;;8.70;2.00;;;;;;;27.37;25.06;101871.41;107603;1251;109714;-61
2023/10/06 11:22:54;;;;;;;8.80;2.30;;;;;;;27.52;25.05;101865.35;107474;1253;107707;-61
2023/10/06 11:25:27;;;;;;;7.30;1.60;;;;;;;27.85;25.06;101865.14;107570;1254;99293;-61
2023/10/06 11:28:03;;;;;;;5.10;1.50;;;;;;;28.10;24.77;101860.55;107593;1253;99300;-58
2023/10/06 11:30:33;;;;;;;8.50;2.20;;;;;;;28.33;24.79;101861.77;107545;1254;113194;-59
2023/10/06 11:33:04;;;;;;;7.50;1.80;;;;;;;28.39;24.39;101862.39;107527;1254;109149;-59
2023/10/06 11:35:34;;;;;;;11.50;2.00;;;;;;;28.61;24.25;101863.90;107571;1254;107638;-59
2023/10/06 11:38:05;;;;;;;5.30;1.70;;;;;;;28.60;23.67;101866.80;107531;1253;99174;-60
2023/10/06 11:40:35;;;;;;;9.00;1.60;;;;;;;28.10;23.66;101864.92;107561;1256;99067;-58